sensor_id;sensor_type;location;lat;lon;timestamp;pressure;altitude;pressure_sealevel;temperature;humidity
52957;BME280;38819;42.692;23.342;2022-08-02T00:01:41;95106.53;;;21.60;51.88
52957;BME280;38819;42.692;23.342;2022-08-02T00:04:07;95110.81;;;21.57;52.61
52957;BME280;38819;42.692;23.342;2022-08-02T00:06:33;95107.28;;;21.57;52.08
52957;BME280;38819;42.692;23.342;2022-08-02T00:08:59;95104.03;;;21.51;52.70
52957;BME280;38819;42.692;23.342;2022-08-02T00:11:25;95098.75;;;21.42;52.45
52957;BME280;38819;42.692;23.342;2022-08-02T00:13:50;95099.59;;;21.46;52.41
52957;BME280;38819;42.692;23.342;2022-08-02T00:16:16;95106.28;;;21.45;52.28
52957;BME280;38819;42.692;23.342;2022-08-02T00:18:42;95101.22;;;21.48;52.54
52957;BME280;38819;42.692;23.342;2022-08-02T00:21:07;95103.97;;;21.48;52.62
52957;BME280;38819;42.692;23.342;2022-08-02T00:23:33;95102.28;;;21.43;52.71
52957;BME280;38819;42.692;23.342;2022-08-02T00:25:58;95107.50;;;21.48;52.57
52957;BME280;38819;42.692;23.342;2022-08-02T00:28:24;95098.38;;;21.44;52.60
52957;BME280;38819;42.692;23.342;2022-08-02T00:30:50;95098.28;;;21.37;52.97
52957;BME280;38819;42.692;23.342;2022-08-02T00:33:15;95096.56;;;21.28;53.38
52957;BME280;38819;42.692;23.342;2022-08-02T00:35:40;95094.47;;;21.22;53.56
52957;BME280;38819;42.692;23.342;2022-08-02T00:38:06;95098.28;;;21.17;53.84
52957;BME280;38819;42.692;23.342;2022-08-02T00:40:32;95103.97;;;21.05;54.32
52957;BME280;38819;42.692;23.342;2022-08-02T00:43:09;95096.38;;;20.98;54.46
52957;BME280;38819;42.692;23.342;2022-08-02T00:45:35;95102.44;;;20.88;54.69
52957;BME280;38819;42.692;23.342;2022-08-02T00:48:01;95104.97;;;20.77;54.74
52957;BME280;38819;42.692;23.342;2022-08-02T00:50:28;95102.38;;;20.49;55.46
52957;BME280;38819;42.692;23.342;2022-08-02T00:52:53;95101.59;;;20.48;55.62
52957;BME280;38819;42.692;23.342;2022-08-02T00:55:20;95105.97;;;20.53;55.62
52957;BME280;38819;42.692;23.342;2022-08-02T00:57:46;95104.91;;;20.58;55.15
52957;BME280;38819;42.692;23.342;2022-08-02T01:00:11;95105.56;;;20.51;55.28
52957;BME280;38819;42.692;23.342;2022-08-02T01:02:37;95103.53;;;20.48;55.11
52957;BME280;38819;42.692;23.342;2022-08-02T01:05:03;95101.13;;;20.46;55.01
52957;BME280;38819;42.692;23.342;2022-08-02T01:07:29;95102.03;;;20.50;54.61
52957;BME280;38819;42.692;23.342;2022-08-02T01:09:55;95097.31;;;20.31;54.55
52957;BME280;38819;42.692;23.342;2022-08-02T01:12:20;95106.97;;;20.25;55.00
52957;BME280;38819;42.692;23.342;2022-08-02T01:14:48;95103.44;;;20.25;54.76
52957;BME280;38819;42.692;23.342;2022-08-02T01:28:40;95097.28;;;19.48;55.89
52957;BME280;38819;42.692;23.342;2022-08-02T01:36:37;95110.84;;;19.29;56.08
52957;BME280;38819;42.692;23.342;2022-08-02T01:39:05;95106.72;;;19.35;55.46
52957;BME280;38819;42.692;23.342;2022-08-02T01:41:34;95102.09;;;19.23;56.21
52957;BME280;38819;42.692;23.342;2022-08-02T01:44:00;95111.00;;;19.20;55.90
52957;BME280;38819;42.692;23.342;2022-08-02T01:46:28;95101.75;;;19.24;55.91
52957;BME280;38819;42.692;23.342;2022-08-02T01:48:56;95101.59;;;19.33;55.96
52957;BME280;38819;42.692;23.342;2022-08-02T01:51:24;95111.50;;;19.38;55.75
52957;BME280;38819;42.692;23.342;2022-08-02T01:54:10;95110.16;;;19.32;55.96
52957;BME280;38819;42.692;23.342;2022-08-02T01:56:37;95108.19;;;19.32;56.15
52957;BME280;38819;42.692;23.342;2022-08-02T01:59:04;95111.50;;;19.38;56.47
52957;BME280;38819;42.692;23.342;2022-08-02T02:01:33;95109.28;;;19.43;56.36
52957;BME280;38819;42.692;23.342;2022-08-02T02:04:01;95108.56;;;19.47;56.39
52957;BME280;38819;42.692;23.342;2022-08-02T02:06:27;95111.84;;;19.52;55.05
52957;BME280;38819;42.692;23.342;2022-08-02T02:08:53;95101.06;;;19.43;55.55
52957;BME280;38819;42.692;23.342;2022-08-02T02:11:20;95109.09;;;19.52;55.73
52957;BME280;38819;42.692;23.342;2022-08-02T02:13:46;95108.56;;;19.47;56.23
52957;BME280;38819;42.692;23.342;2022-08-02T02:16:13;95105.13;;;19.50;55.42
52957;BME280;38819;42.692;23.342;2022-08-02T02:18:41;95110.00;;;19.56;56.04
52957;BME280;38819;42.692;23.342;2022-08-02T02:21:08;95110.69;;;19.53;56.16
52957;BME280;38819;42.692;23.342;2022-08-02T02:23:36;95105.13;;;19.50;56.54
52957;BME280;38819;42.692;23.342;2022-08-02T02:26:03;95105.56;;;19.52;56.64
52957;BME280;38819;42.692;23.342;2022-08-02T02:28:30;95113.44;;;19.53;56.53
52957;BME280;38819;42.692;23.342;2022-08-02T02:31:02;95111.75;;;19.49;56.83
52957;BME280;38819;42.692;23.342;2022-08-02T02:33:30;95115.53;;;19.44;57.21
52957;BME280;38819;42.692;23.342;2022-08-02T02:35:58;95107.88;;;19.50;56.74
52957;BME280;38819;42.692;23.342;2022-08-02T02:38:27;95113.09;;;19.55;57.13
52957;BME280;38819;42.692;23.342;2022-08-02T02:40:55;95106.00;;;19.54;56.96
52957;BME280;38819;42.692;23.342;2022-08-02T02:43:24;95108.31;;;19.52;56.90
52957;BME280;38819;42.692;23.342;2022-08-02T02:45:52;95109.81;;;19.49;56.70
52957;BME280;38819;42.692;23.342;2022-08-02T02:48:17;95109.88;;;19.37;57.66
52957;BME280;38819;42.692;23.342;2022-08-02T02:50:44;95108.38;;;19.39;57.34
52957;BME280;38819;42.692;23.342;2022-08-02T02:53:11;95110.75;;;19.41;57.65
52957;BME280;38819;42.692;23.342;2022-08-02T02:55:39;95109.53;;;19.38;57.41
52957;BME280;38819;42.692;23.342;2022-08-02T02:58:06;95109.09;;;19.36;57.52
52957;BME280;38819;42.692;23.342;2022-08-02T03:00:32;95114.22;;;19.38;57.75
52957;BME280;38819;42.692;23.342;2022-08-02T03:03:17;95115.28;;;19.33;57.71
52957;BME280;38819;42.692;23.342;2022-08-02T03:05:42;95109.44;;;19.35;57.79
52957;BME280;38819;42.692;23.342;2022-08-02T03:08:08;95112.78;;;19.28;58.29
52957;BME280;38819;42.692;23.342;2022-08-02T03:10:33;95116.22;;;19.25;58.69
52957;BME280;38819;42.692;23.342;2022-08-02T03:12:59;95113.09;;;19.11;59.04
52957;BME280;38819;42.692;23.342;2022-08-02T03:15:26;95118.41;;;19.19;58.42
52957;BME280;38819;42.692;23.342;2022-08-02T03:17:53;95123.00;;;19.15;58.45
52957;BME280;38819;42.692;23.342;2022-08-02T03:20:19;95120.88;;;19.09;58.99
52957;BME280;38819;42.692;23.342;2022-08-02T03:22:47;95114.25;;;19.10;59.31
52957;BME280;38819;42.692;23.342;2022-08-02T03:25:13;95111.41;;;19.06;59.35
52957;BME280;38819;42.692;23.342;2022-08-02T03:27:39;95117.69;;;19.06;58.59
52957;BME280;38819;42.692;23.342;2022-08-02T03:30:07;95116.66;;;19.11;57.44
52957;BME280;38819;42.692;23.342;2022-08-02T03:32:35;95112.16;;;19.19;57.52
52957;BME280;38819;42.692;23.342;2022-08-02T03:35:04;95113.13;;;19.27;56.86
52957;BME280;38819;42.692;23.342;2022-08-02T03:37:30;95128.56;;;19.19;56.24
52957;BME280;38819;42.692;23.342;2022-08-02T03:39:57;95128.03;;;19.13;56.86
52957;BME280;38819;42.692;23.342;2022-08-02T03:42:25;95115.31;;;19.05;56.89
52957;BME280;38819;42.692;23.342;2022-08-02T03:44:52;95129.59;;;18.98;57.25
52957;BME280;38819;42.692;23.342;2022-08-02T03:47:18;95131.88;;;18.96;57.63
52957;BME280;38819;42.692;23.342;2022-08-02T03:49:44;95131.72;;;19.05;57.13
52957;BME280;38819;42.692;23.342;2022-08-02T03:52:11;95134.28;;;18.98;57.28
52957;BME280;38819;42.692;23.342;2022-08-02T03:54:36;95133.25;;;18.90;57.25
52957;BME280;38819;42.692;23.342;2022-08-02T03:57:04;95133.34;;;18.94;57.35
52957;BME280;38819;42.692;23.342;2022-08-02T03:59:42;95139.44;;;18.87;57.67
52957;BME280;38819;42.692;23.342;2022-08-02T04:02:08;95144.00;;;18.83;57.75
52957;BME280;38819;42.692;23.342;2022-08-02T04:04:34;95149.50;;;18.83;57.80
52957;BME280;38819;42.692;23.342;2022-08-02T04:06:59;95158.69;;;18.91;57.57
52957;BME280;38819;42.692;23.342;2022-08-02T04:09:25;95157.50;;;19.04;57.12
52957;BME280;38819;42.692;23.342;2022-08-02T04:11:50;95154.75;;;19.04;57.39
52957;BME280;38819;42.692;23.342;2022-08-02T04:14:15;95157.25;;;19.09;57.42
52957;BME280;38819;42.692;23.342;2022-08-02T04:16:44;95165.75;;;19.20;57.18
52957;BME280;38819;42.692;23.342;2022-08-02T04:19:15;95167.91;;;19.27;56.83
52957;BME280;38819;42.692;23.342;2022-08-02T04:21:43;95159.19;;;19.37;56.81
52957;BME280;38819;42.692;23.342;2022-08-02T04:24:10;95165.66;;;19.44;56.27
52957;BME280;38819;42.692;23.342;2022-08-02T04:26:38;95152.06;;;19.48;56.17
52957;BME280;38819;42.692;23.342;2022-08-02T04:29:08;95155.50;;;19.61;56.07
52957;BME280;38819;42.692;23.342;2022-08-02T04:31:35;95165.22;;;19.58;55.39
52957;BME280;38819;42.692;23.342;2022-08-02T04:34:01;95152.66;;;19.57;55.43
52957;BME280;38819;42.692;23.342;2022-08-02T04:36:27;95155.41;;;19.57;54.57
52957;BME280;38819;42.692;23.342;2022-08-02T04:38:53;95151.19;;;19.60;54.95
52957;BME280;38819;42.692;23.342;2022-08-02T04:41:18;95159.66;;;19.71;54.61
52957;BME280;38819;42.692;23.342;2022-08-02T04:43:43;95152.59;;;19.70;53.96
52957;BME280;38819;42.692;23.342;2022-08-02T04:46:09;95148.69;;;19.71;54.08
52957;BME280;38819;42.692;23.342;2022-08-02T04:48:34;95153.25;;;19.79;53.59
52957;BME280;38819;42.692;23.342;2022-08-02T04:51:00;95157.41;;;19.89;54.22
52957;BME280;38819;42.692;23.342;2022-08-02T04:53:25;95162.50;;;20.06;54.64
52957;BME280;38819;42.692;23.342;2022-08-02T04:55:51;95165.00;;;20.11;55.05
52957;BME280;38819;42.692;23.342;2022-08-02T04:58:16;95168.88;;;20.26;54.72
52957;BME280;38819;42.692;23.342;2022-08-02T05:00:43;95161.25;;;20.35;54.42
52957;BME280;38819;42.692;23.342;2022-08-02T05:03:08;95161.41;;;20.43;54.17
52957;BME280;38819;42.692;23.342;2022-08-02T05:05:34;95160.44;;;20.51;54.07
52957;BME280;38819;42.692;23.342;2022-08-02T05:07:59;95160.78;;;20.49;53.66
52957;BME280;38819;42.692;23.342;2022-08-02T05:10:24;95157.59;;;20.47;53.61
52957;BME280;38819;42.692;23.342;2022-08-02T05:12:50;95162.09;;;20.55;53.21
52957;BME280;38819;42.692;23.342;2022-08-02T05:15:16;95166.06;;;20.74;53.12
52957;BME280;38819;42.692;23.342;2022-08-02T05:17:44;95171.13;;;20.72;51.85
52957;BME280;38819;42.692;23.342;2022-08-02T05:20:10;95169.69;;;20.62;51.26
52957;BME280;38819;42.692;23.342;2022-08-02T05:22:37;95168.84;;;20.58;51.24
52957;BME280;38819;42.692;23.342;2022-08-02T05:25:03;95170.97;;;20.65;51.34
52957;BME280;38819;42.692;23.342;2022-08-02T05:27:28;95172.19;;;20.67;52.60
52957;BME280;38819;42.692;23.342;2022-08-02T05:29:54;95163.88;;;20.64;53.21
52957;BME280;38819;42.692;23.342;2022-08-02T05:32:19;95174.75;;;20.60;53.36
52957;BME280;38819;42.692;23.342;2022-08-02T05:34:45;95175.91;;;20.75;53.09
52957;BME280;38819;42.692;23.342;2022-08-02T05:37:11;95179.94;;;20.81;52.85
52957;BME280;38819;42.692;23.342;2022-08-02T05:39:36;95179.72;;;20.70;53.33
52957;BME280;38819;42.692;23.342;2022-08-02T05:42:01;95181.31;;;20.71;52.88
52957;BME280;38819;42.692;23.342;2022-08-02T05:44:27;95185.00;;;20.79;52.33
52957;BME280;38819;42.692;23.342;2022-08-02T05:46:52;95185.28;;;20.74;53.34
52957;BME280;38819;42.692;23.342;2022-08-02T05:49:18;95183.78;;;20.61;53.24
52957;BME280;38819;42.692;23.342;2022-08-02T05:52:03;95188.41;;;20.57;53.45
52957;BME280;38819;42.692;23.342;2022-08-02T05:54:53;95186.16;;;20.62;53.55
52957;BME280;38819;42.692;23.342;2022-08-02T05:57:33;95187.66;;;20.76;53.92
52957;BME280;38819;42.692;23.342;2022-08-02T06:00:05;95184.56;;;20.77;53.32
52957;BME280;38819;42.692;23.342;2022-08-02T06:05:13;95186.31;;;20.85;52.96
52957;BME280;38819;42.692;23.342;2022-08-02T06:07:43;95189.28;;;20.96;53.19
52957;BME280;38819;42.692;23.342;2022-08-02T06:10:11;95199.53;;;20.99;52.64
52957;BME280;38819;42.692;23.342;2022-08-02T06:13:22;95194.13;;;21.03;52.42
52957;BME280;38819;42.692;23.342;2022-08-02T06:15:42;95196.94;;;21.06;52.84
52957;BME280;38819;42.692;23.342;2022-08-02T06:18:08;95200.63;;;21.14;51.44
52957;BME280;38819;42.692;23.342;2022-08-02T06:20:34;95201.13;;;21.20;51.91
52957;BME280;38819;42.692;23.342;2022-08-02T06:23:05;95200.34;;;21.19;52.09
52957;BME280;38819;42.692;23.342;2022-08-02T06:25:36;95207.56;;;21.27;51.71
52957;BME280;38819;42.692;23.342;2022-08-02T06:28:04;95198.81;;;21.41;50.30
52957;BME280;38819;42.692;23.342;2022-08-02T06:30:31;95208.72;;;21.46;51.80
52957;BME280;38819;42.692;23.342;2022-08-02T06:32:57;95212.94;;;21.59;51.00
52957;BME280;38819;42.692;23.342;2022-08-02T06:35:36;95209.09;;;21.64;51.12
52957;BME280;38819;42.692;23.342;2022-08-02T06:38:09;95216.75;;;21.74;50.82
52957;BME280;38819;42.692;23.342;2022-08-02T06:40:55;95201.19;;;21.82;48.23
52957;BME280;38819;42.692;23.342;2022-08-02T06:45:53;95213.34;;;22.04;48.81
52957;BME280;38819;42.692;23.342;2022-08-02T06:48:18;95206.31;;;22.07;48.63
52957;BME280;38819;42.692;23.342;2022-08-02T06:50:44;95206.44;;;22.14;47.93
52957;BME280;38819;42.692;23.342;2022-08-02T06:53:10;95206.88;;;22.16;47.42
52957;BME280;38819;42.692;23.342;2022-08-02T06:55:36;95198.56;;;22.12;46.55
52957;BME280;38819;42.692;23.342;2022-08-02T06:58:01;95210.81;;;22.18;47.14
52957;BME280;38819;42.692;23.342;2022-08-02T07:00:28;95205.03;;;22.24;47.30
52957;BME280;38819;42.692;23.342;2022-08-02T07:02:53;95206.81;;;22.35;46.81
52957;BME280;38819;42.692;23.342;2022-08-02T07:05:19;95214.16;;;22.51;46.06
52957;BME280;38819;42.692;23.342;2022-08-02T07:07:44;95197.31;;;22.56;45.21
52957;BME280;38819;42.692;23.342;2022-08-02T07:10:11;95194.59;;;22.60;45.63
52957;BME280;38819;42.692;23.342;2022-08-02T07:12:36;95198.97;;;22.61;45.67
52957;BME280;38819;42.692;23.342;2022-08-02T07:15:04;95200.97;;;22.64;45.63
52957;BME280;38819;42.692;23.342;2022-08-02T07:17:30;95210.59;;;22.77;45.54
52957;BME280;38819;42.692;23.342;2022-08-02T07:19:57;95205.97;;;22.85;45.09
52957;BME280;38819;42.692;23.342;2022-08-02T07:22:23;95212.75;;;22.91;45.08
52957;BME280;38819;42.692;23.342;2022-08-02T07:24:51;95205.66;;;22.90;45.38
52957;BME280;38819;42.692;23.342;2022-08-02T07:27:18;95200.34;;;23.04;45.01
52957;BME280;38819;42.692;23.342;2022-08-02T07:29:44;95200.50;;;23.15;44.30
52957;BME280;38819;42.692;23.342;2022-08-02T07:32:09;95213.88;;;23.13;44.01
52957;BME280;38819;42.692;23.342;2022-08-02T07:34:35;95211.53;;;23.15;43.17
52957;BME280;38819;42.692;23.342;2022-08-02T07:37:00;95208.56;;;23.01;43.00
52957;BME280;38819;42.692;23.342;2022-08-02T07:39:26;95199.50;;;23.00;43.18
52957;BME280;38819;42.692;23.342;2022-08-02T07:41:51;95196.91;;;23.11;43.15
52957;BME280;38819;42.692;23.342;2022-08-02T07:44:17;95205.28;;;23.18;43.98
52957;BME280;38819;42.692;23.342;2022-08-02T07:46:43;95191.19;;;23.27;43.22
52957;BME280;38819;42.692;23.342;2022-08-02T07:49:09;95200.81;;;23.40;43.32
52957;BME280;38819;42.692;23.342;2022-08-02T07:51:34;95194.97;;;23.45;43.32
52957;BME280;38819;42.692;23.342;2022-08-02T07:54:01;95195.06;;;23.53;42.99
52957;BME280;38819;42.692;23.342;2022-08-02T07:56:26;95199.88;;;23.59;43.35
52957;BME280;38819;42.692;23.342;2022-08-02T07:58:52;95193.06;;;23.49;42.52
52957;BME280;38819;42.692;23.342;2022-08-02T08:01:18;95205.75;;;23.58;42.91
52957;BME280;38819;42.692;23.342;2022-08-02T08:03:44;95200.69;;;23.63;42.38
52957;BME280;38819;42.692;23.342;2022-08-02T08:06:09;95200.38;;;23.72;42.41
52957;BME280;38819;42.692;23.342;2022-08-02T08:08:35;95198.34;;;23.65;42.32
52957;BME280;38819;42.692;23.342;2022-08-02T08:11:00;95203.13;;;23.72;43.18
52957;BME280;38819;42.692;23.342;2022-08-02T08:13:26;95204.44;;;23.82;42.55
52957;BME280;38819;42.692;23.342;2022-08-02T08:15:51;95190.69;;;23.85;42.40
52957;BME280;38819;42.692;23.342;2022-08-02T08:18:17;95206.94;;;23.94;42.33
52957;BME280;38819;42.692;23.342;2022-08-02T08:20:42;95191.16;;;23.91;42.47
52957;BME280;38819;42.692;23.342;2022-08-02T08:23:08;95190.09;;;24.03;42.60
52957;BME280;38819;42.692;23.342;2022-08-02T08:25:33;95192.13;;;24.10;42.36
52957;BME280;38819;42.692;23.342;2022-08-02T08:27:59;95199.97;;;24.04;42.53
52957;BME280;38819;42.692;23.342;2022-08-02T08:30:25;95202.63;;;23.97;42.96
52957;BME280;38819;42.692;23.342;2022-08-02T08:32:50;95195.56;;;23.99;42.75
52957;BME280;38819;42.692;23.342;2022-08-02T08:35:16;95184.22;;;24.08;42.96
52957;BME280;38819;42.692;23.342;2022-08-02T08:37:41;95186.19;;;24.08;42.95
52957;BME280;38819;42.692;23.342;2022-08-02T08:40:08;95177.44;;;24.02;43.12
52957;BME280;38819;42.692;23.342;2022-08-02T08:42:36;95188.06;;;24.00;42.80
52957;BME280;38819;42.692;23.342;2022-08-02T08:45:03;95182.16;;;23.98;43.04
52957;BME280;38819;42.692;23.342;2022-08-02T08:47:36;95194.75;;;23.99;43.72
52957;BME280;38819;42.692;23.342;2022-08-02T08:50:05;95181.44;;;24.04;43.70
52957;BME280;38819;42.692;23.342;2022-08-02T08:52:40;95193.25;;;24.05;43.40
52957;BME280;38819;42.692;23.342;2022-08-02T08:55:08;95182.22;;;24.05;43.38
52957;BME280;38819;42.692;23.342;2022-08-02T08:57:39;95181.88;;;24.14;42.69
52957;BME280;38819;42.692;23.342;2022-08-02T09:00:05;95189.41;;;24.17;42.34
52957;BME280;38819;42.692;23.342;2022-08-02T09:02:33;95177.22;;;24.21;42.22
52957;BME280;38819;42.692;23.342;2022-08-02T09:04:59;95183.97;;;24.24;42.48
52957;BME280;38819;42.692;23.342;2022-08-02T09:07:25;95178.47;;;24.28;42.41
52957;BME280;38819;42.692;23.342;2022-08-02T09:09:50;95181.63;;;24.30;41.55
52957;BME280;38819;42.692;23.342;2022-08-02T09:12:17;95183.72;;;24.47;41.29
52957;BME280;38819;42.692;23.342;2022-08-02T09:14:44;95179.41;;;24.50;41.68
52957;BME280;38819;42.692;23.342;2022-08-02T09:17:10;95172.31;;;24.49;41.73
52957;BME280;38819;42.692;23.342;2022-08-02T09:19:39;95176.25;;;24.48;41.38
52957;BME280;38819;42.692;23.342;2022-08-02T09:22:09;95180.31;;;24.57;41.00
52957;BME280;38819;42.692;23.342;2022-08-02T09:24:45;95172.75;;;24.54;41.00
52957;BME280;38819;42.692;23.342;2022-08-02T09:27:17;95166.16;;;24.66;40.93
52957;BME280;38819;42.692;23.342;2022-08-02T09:29:52;95172.94;;;24.76;41.83
52957;BME280;38819;42.692;23.342;2022-08-02T09:32:18;95171.00;;;24.87;41.33
52957;BME280;38819;42.692;23.342;2022-08-02T09:34:47;95166.22;;;24.81;41.44
52957;BME280;38819;42.692;23.342;2022-08-02T09:37:29;95168.22;;;24.84;40.89
52957;BME280;38819;42.692;23.342;2022-08-02T09:39:57;95161.53;;;24.85;41.86
52957;BME280;38819;42.692;23.342;2022-08-02T09:42:28;95158.00;;;24.88;41.45
52957;BME280;38819;42.692;23.342;2022-08-02T09:44:59;95169.94;;;25.06;40.58
52957;BME280;38819;42.692;23.342;2022-08-02T09:47:26;95159.69;;;25.14;40.55
52957;BME280;38819;42.692;23.342;2022-08-02T09:49:53;95161.66;;;25.17;40.38
52957;BME280;38819;42.692;23.342;2022-08-02T09:52:37;95155.84;;;25.29;40.35
52957;BME280;38819;42.692;23.342;2022-08-02T09:55:05;95157.44;;;25.38;39.95
52957;BME280;38819;42.692;23.342;2022-08-02T09:57:31;95147.19;;;25.38;39.64
52957;BME280;38819;42.692;23.342;2022-08-02T10:00:05;95145.19;;;25.35;39.92
52957;BME280;38819;42.692;23.342;2022-08-02T10:02:31;95153.09;;;25.33;39.53
52957;BME280;38819;42.692;23.342;2022-08-02T10:04:57;95141.66;;;25.42;39.96
52957;BME280;38819;42.692;23.342;2022-08-02T10:07:23;95141.28;;;25.54;39.81
52957;BME280;38819;42.692;23.342;2022-08-02T10:09:50;95141.72;;;25.67;40.30
52957;BME280;38819;42.692;23.342;2022-08-02T10:12:15;95148.84;;;25.79;39.96
52957;BME280;38819;42.692;23.342;2022-08-02T10:14:41;95154.75;;;25.63;39.62
52957;BME280;38819;42.692;23.342;2022-08-02T10:17:08;95142.47;;;25.53;40.05
52957;BME280;38819;42.692;23.342;2022-08-02T10:19:34;95143.66;;;25.59;40.40
52957;BME280;38819;42.692;23.342;2022-08-02T10:22:04;95137.78;;;25.72;39.42
52957;BME280;38819;42.692;23.342;2022-08-02T10:24:32;95134.22;;;25.78;40.07
52957;BME280;38819;42.692;23.342;2022-08-02T10:27:01;95147.28;;;25.81;39.12
52957;BME280;38819;42.692;23.342;2022-08-02T10:29:37;95152.00;;;25.66;39.61
52957;BME280;38819;42.692;23.342;2022-08-02T10:32:13;95147.25;;;25.67;38.99
52957;BME280;38819;42.692;23.342;2022-08-02T10:34:56;95139.72;;;25.67;39.07
52957;BME280;38819;42.692;23.342;2022-08-02T10:37:27;95137.78;;;25.64;39.20
52957;BME280;38819;42.692;23.342;2022-08-02T10:39:55;95132.25;;;25.72;38.89
52957;BME280;38819;42.692;23.342;2022-08-02T10:42:44;95133.06;;;25.83;39.43
52957;BME280;38819;42.692;23.342;2022-08-02T10:45:15;95131.06;;;25.83;39.80
52957;BME280;38819;42.692;23.342;2022-08-02T10:48:11;95128.38;;;25.98;39.98
52957;BME280;38819;42.692;23.342;2022-08-02T10:53:20;95135.44;;;26.28;39.58
52957;BME280;38819;42.692;23.342;2022-08-02T10:55:45;95123.59;;;26.31;39.16
52957;BME280;38819;42.692;23.342;2022-08-02T10:58:18;95131.50;;;26.25;39.18
52957;BME280;38819;42.692;23.342;2022-08-02T11:00:46;95127.94;;;26.17;38.84
52957;BME280;38819;42.692;23.342;2022-08-02T11:03:35;95133.09;;;26.19;38.98
52957;BME280;38819;42.692;23.342;2022-08-02T11:06:08;95127.16;;;26.17;39.03
52957;BME280;38819;42.692;23.342;2022-08-02T11:08:34;95124.81;;;26.08;39.87
52957;BME280;38819;42.692;23.342;2022-08-02T11:11:02;95120.44;;;26.11;38.99
52957;BME280;38819;42.692;23.342;2022-08-02T11:14:04;95126.78;;;26.18;38.86
52957;BME280;38819;42.692;23.342;2022-08-02T11:19:23;95124.78;;;26.26;38.44
52957;BME280;38819;42.692;23.342;2022-08-02T11:22:05;95125.97;;;26.36;37.67
52957;BME280;38819;42.692;23.342;2022-08-02T11:24:35;95123.97;;;26.33;37.61
52957;BME280;38819;42.692;23.342;2022-08-02T11:27:03;95123.59;;;26.34;37.81
52957;BME280;38819;42.692;23.342;2022-08-02T11:29:40;95120.81;;;26.38;37.75
52957;BME280;38819;42.692;23.342;2022-08-02T11:32:08;95128.31;;;26.37;37.67
52957;BME280;38819;42.692;23.342;2022-08-02T11:34:39;95126.78;;;26.36;37.91
52957;BME280;38819;42.692;23.342;2022-08-02T11:37:06;95133.88;;;26.30;38.27
52957;BME280;38819;42.692;23.342;2022-08-02T11:39:32;95131.53;;;26.21;38.33
52957;BME280;38819;42.692;23.342;2022-08-02T11:41:59;95129.94;;;26.20;38.60
52957;BME280;38819;42.692;23.342;2022-08-02T11:44:25;95129.53;;;26.22;38.16
52957;BME280;38819;42.692;23.342;2022-08-02T11:47:00;95129.91;;;26.28;38.16
52957;BME280;38819;42.692;23.342;2022-08-02T11:49:26;95130.72;;;26.28;37.46
52957;BME280;38819;42.692;23.342;2022-08-02T11:52:00;95128.72;;;26.39;37.61
52957;BME280;38819;42.692;23.342;2022-08-02T11:54:37;95125.16;;;26.42;37.89
52957;BME280;38819;42.692;23.342;2022-08-02T11:59:38;95123.97;;;26.61;38.35
52957;BME280;38819;42.692;23.342;2022-08-02T12:02:04;95123.59;;;26.63;38.48
52957;BME280;38819;42.692;23.342;2022-08-02T12:04:30;95124.75;;;26.66;38.82
52957;BME280;38819;42.692;23.342;2022-08-02T12:06:57;95123.56;;;26.70;37.58
52957;BME280;38819;42.692;23.342;2022-08-02T12:09:25;95120.38;;;26.75;37.53
52957;BME280;38819;42.692;23.342;2022-08-02T12:11:51;95122.34;;;26.82;37.73
52957;BME280;38819;42.692;23.342;2022-08-02T12:14:17;95119.19;;;26.84;37.77
52957;BME280;38819;42.692;23.342;2022-08-02T12:16:43;95108.13;;;26.76;37.62
52957;BME280;38819;42.692;23.342;2022-08-02T12:19:27;95108.50;;;26.71;37.89
52957;BME280;38819;42.692;23.342;2022-08-02T12:24:32;95116.41;;;26.80;37.71
52957;BME280;38819;42.692;23.342;2022-08-02T12:26:57;95119.19;;;26.80;38.55
52957;BME280;38819;42.692;23.342;2022-08-02T12:29:36;95114.44;;;26.77;37.71
52957;BME280;38819;42.692;23.342;2022-08-02T12:32:03;95114.06;;;26.75;38.17
52957;BME280;38819;42.692;23.342;2022-08-02T12:34:30;95114.47;;;26.73;38.72
52957;BME280;38819;42.692;23.342;2022-08-02T12:39:33;95111.66;;;26.80;37.60
52957;BME280;38819;42.692;23.342;2022-08-02T12:41:58;95115.19;;;26.85;37.40
52957;BME280;38819;42.692;23.342;2022-08-02T12:44:24;95117.97;;;26.92;37.57
52957;BME280;38819;42.692;23.342;2022-08-02T12:47:05;95119.16;;;26.91;37.57
52957;BME280;38819;42.692;23.342;2022-08-02T12:49:30;95133.38;;;27.00;37.93
52957;BME280;38819;42.692;23.342;2022-08-02T12:51:56;95115.13;;;27.03;37.17
52957;BME280;38819;42.692;23.342;2022-08-02T12:54:37;95111.94;;;27.15;37.50
52957;BME280;38819;42.692;23.342;2022-08-02T12:57:13;95105.22;;;27.09;37.66
52957;BME280;38819;42.692;23.342;2022-08-02T12:59:41;95102.00;;;27.21;37.07
52957;BME280;38819;42.692;23.342;2022-08-02T13:02:10;95090.53;;;27.19;37.10
52957;BME280;38819;42.692;23.342;2022-08-02T13:04:36;95096.78;;;27.38;37.40
52957;BME280;38819;42.692;23.342;2022-08-02T13:07:02;95098.84;;;27.30;36.51
52957;BME280;38819;42.692;23.342;2022-08-02T13:09:35;95094.41;;;27.43;36.67
52957;BME280;38819;42.692;23.342;2022-08-02T13:12:01;95084.84;;;27.48;36.47
52957;BME280;38819;42.692;23.342;2022-08-02T13:14:26;95096.34;;;27.50;37.37
52957;BME280;38819;42.692;23.342;2022-08-02T13:16:51;95095.91;;;27.51;38.58
52957;BME280;38819;42.692;23.342;2022-08-02T13:19:17;95090.38;;;27.55;37.93
52957;BME280;38819;42.692;23.342;2022-08-02T13:21:44;95096.31;;;27.53;36.94
52957;BME280;38819;42.692;23.342;2022-08-02T13:24:10;95099.13;;;27.43;37.20
52957;BME280;38819;42.692;23.342;2022-08-02T13:26:38;95089.31;;;27.31;37.36
52957;BME280;38819;42.692;23.342;2022-08-02T13:29:04;95098.78;;;27.26;37.81
52957;BME280;38819;42.692;23.342;2022-08-02T13:31:29;95095.66;;;27.21;37.71